Aviation Digital Data Service (ADDS)

Output produced by METARs form (1441 UTC 19 January 2019)
found at http://www.aviationweather.gov/metar/data/
 
Forecast for: PTYA (YAP ISLAND , FM)
Text: PTYA 191131Z 1912/2012 08010KT P6SM VCSH SCT016 SCT040 BKN130
Forecast period: 1200 UTC 19 January 2019 to 1200 UTC 20 January 2019
Forecast type: FROM: standard forecast or significant change
Winds: from the E (80 degrees) at 12 MPH (10 knots; 5.1 m/s)
Visibility: 6 or more miles 10+ km)
Ceiling: 13000 feet AGL
Clouds: scattered clouds at 1600 feet AGL
scattered clouds at 4000 feet AGL
broken clouds at 13000 feet AGL
Weather: VCSH  (showers in vicinity)
Text: TEMPO 1914/1917 VRB05KT 4SM SHRA SCT014 BKN025
Forecast period: 1400 to 1700 UTC 19 January 2019
Forecast type: TEMPORARY: The following changes expected for less than half the time period
Winds: variable direction winds at 6 MPH (5 knots; 2.6 m/s)
Visibility: 4 miles (6 km)
Ceiling: 2500 feet AGL
Clouds: scattered clouds at 1400 feet AGL
broken clouds at 2500 feet AGL
Weather: SHRA  (rain showers)